sensor_id;sensor_type;location;lat;lon;timestamp;P1;P2;P0
79117;PMS7003;68523;51.336;-0.846;2023-07-30T00:00:00;51;43;
79117;PMS7003;68523;51.336;-0.846;2023-07-30T00:03:00;51;43;
79117;PMS7003;68523;51.336;-0.846;2023-07-30T00:06:00;23;23;
79117;PMS7003;68523;51.336;-0.846;2023-07-30T00:09:00;27;27;
79117;PMS7003;68523;51.336;-0.846;2023-07-30T00:12:00;27;27;
79117;PMS7003;68523;51.336;-0.846;2023-07-30T00:15:00;34;31;
79117;PMS7003;68523;51.336;-0.846;2023-07-30T00:18:00;34;31;
79117;PMS7003;68523;51.336;-0.846;2023-07-30T00:21:00;18;18;
79117;PMS7003;68523;51.336;-0.846;2023-07-30T00:24:00;23;21;
79117;PMS7003;68523;51.336;-0.846;2023-07-30T00:27:00;23;21;
79117;PMS7003;68523;51.336;-0.846;2023-07-30T00:30:00;28;28;
79117;PMS7003;68523;51.336;-0.846;2023-07-30T00:33:00;28;28;
79117;PMS7003;68523;51.336;-0.846;2023-07-30T00:36:00;21;19;
79117;PMS7003;68523;51.336;-0.846;2023-07-30T00:39:00;23;23;
79117;PMS7003;68523;51.336;-0.846;2023-07-30T00:42:00;23;23;
79117;PMS7003;68523;51.336;-0.846;2023-07-30T00:45:00;11;10;
79117;PMS7003;68523;51.336;-0.846;2023-07-30T00:48:00;11;10;
79117;PMS7003;68523;51.336;-0.846;2023-07-30T00:51:00;11;11;
79117;PMS7003;68523;51.336;-0.846;2023-07-30T00:54:00;6;5;
79117;PMS7003;68523;51.336;-0.846;2023-07-30T00:57:00;6;5;
79117;PMS7003;68523;51.336;-0.846;2023-07-30T01:00:01;10;9;
79117;PMS7003;68523;51.336;-0.846;2023-07-30T01:03:00;10;9;
79117;PMS7003;68523;51.336;-0.846;2023-07-30T01:06:00;5;4;
79117;PMS7003;68523;51.336;-0.846;2023-07-30T01:09:00;7;6;
79117;PMS7003;68523;51.336;-0.846;2023-07-30T01:12:00;7;6;
79117;PMS7003;68523;51.336;-0.846;2023-07-30T01:15:00;12;12;
79117;PMS7003;68523;51.336;-0.846;2023-07-30T01:18:00;12;12;
79117;PMS7003;68523;51.336;-0.846;2023-07-30T01:21:00;6;6;
79117;PMS7003;68523;51.336;-0.846;2023-07-30T01:24:00;5;3;
79117;PMS7003;68523;51.336;-0.846;2023-07-30T01:27:01;5;3;
79117;PMS7003;68523;51.336;-0.846;2023-07-30T01:30:01;8;6;
79117;PMS7003;68523;51.336;-0.846;2023-07-30T01:33:00;8;6;
79117;PMS7003;68523;51.336;-0.846;2023-07-30T01:36:00;26;26;
79117;PMS7003;68523;51.336;-0.846;2023-07-30T01:39:00;14;14;
79117;PMS7003;68523;51.336;-0.846;2023-07-30T01:42:00;14;14;
79117;PMS7003;68523;51.336;-0.846;2023-07-30T01:45:00;13;12;
79117;PMS7003;68523;51.336;-0.846;2023-07-30T01:48:00;13;12;
79117;PMS7003;68523;51.336;-0.846;2023-07-30T01:51:00;10;10;
79117;PMS7003;68523;51.336;-0.846;2023-07-30T01:54:00;11;9;
79117;PMS7003;68523;51.336;-0.846;2023-07-30T01:57:00;11;9;
79117;PMS7003;68523;51.336;-0.846;2023-07-30T02:00:00;22;21;
79117;PMS7003;68523;51.336;-0.846;2023-07-30T02:03:00;22;21;
79117;PMS7003;68523;51.336;-0.846;2023-07-30T02:06:00;19;19;
79117;PMS7003;68523;51.336;-0.846;2023-07-30T02:09:00;17;17;
79117;PMS7003;68523;51.336;-0.846;2023-07-30T02:12:00;17;17;
79117;PMS7003;68523;51.336;-0.846;2023-07-30T02:15:00;20;20;
79117;PMS7003;68523;51.336;-0.846;2023-07-30T02:18:00;20;20;
79117;PMS7003;68523;51.336;-0.846;2023-07-30T02:21:00;23;20;
79117;PMS7003;68523;51.336;-0.846;2023-07-30T02:24:00;23;20;
79117;PMS7003;68523;51.336;-0.846;2023-07-30T02:27:00;25;25;
79117;PMS7003;68523;51.336;-0.846;2023-07-30T02:30:00;24;23;
79117;PMS7003;68523;51.336;-0.846;2023-07-30T02:33:00;24;23;
79117;PMS7003;68523;51.336;-0.846;2023-07-30T02:36:00;10;10;
79117;PMS7003;68523;51.336;-0.846;2023-07-30T02:39:00;10;10;
79117;PMS7003;68523;51.336;-0.846;2023-07-30T02:42:00;25;25;
79117;PMS7003;68523;51.336;-0.846;2023-07-30T02:45:00;8;7;
79117;PMS7003;68523;51.336;-0.846;2023-07-30T02:48:00;8;7;
79117;PMS7003;68523;51.336;-0.846;2023-07-30T02:51:00;37;34;
79117;PMS7003;68523;51.336;-0.846;2023-07-30T02:54:03;37;34;
79117;PMS7003;68523;51.336;-0.846;2023-07-30T02:57:00;19;19;
79117;PMS7003;68523;51.336;-0.846;2023-07-30T03:00:00;13;13;
79117;PMS7003;68523;51.336;-0.846;2023-07-30T03:03:00;13;13;
79117;PMS7003;68523;51.336;-0.846;2023-07-30T03:06:00;10;10;
79117;PMS7003;68523;51.336;-0.846;2023-07-30T03:09:00;10;10;
79117;PMS7003;68523;51.336;-0.846;2023-07-30T03:12:00;3;3;
79117;PMS7003;68523;51.336;-0.846;2023-07-30T03:15:00;1;1;
79117;PMS7003;68523;51.336;-0.846;2023-07-30T03:18:00;1;1;
79117;PMS7003;68523;51.336;-0.846;2023-07-30T03:21:00;5;3;
79117;PMS7003;68523;51.336;-0.846;2023-07-30T03:24:00;5;3;
79117;PMS7003;68523;51.336;-0.846;2023-07-30T03:27:00;3;3;
79117;PMS7003;68523;51.336;-0.846;2023-07-30T03:30:00;2;2;
79117;PMS7003;68523;51.336;-0.846;2023-07-30T03:33:00;2;2;
79117;PMS7003;68523;51.336;-0.846;2023-07-30T03:36:00;3;1;
79117;PMS7003;68523;51.336;-0.846;2023-07-30T03:39:00;3;1;
79117;PMS7003;68523;51.336;-0.846;2023-07-30T03:42:00;1;1;
79117;PMS7003;68523;51.336;-0.846;2023-07-30T03:45:00;2;2;
79117;PMS7003;68523;51.336;-0.846;2023-07-30T03:48:00;2;2;
79117;PMS7003;68523;51.336;-0.846;2023-07-30T03:51:00;2;1;
79117;PMS7003;68523;51.336;-0.846;2023-07-30T03:54:00;2;1;
79117;PMS7003;68523;51.336;-0.846;2023-07-30T03:57:00;1;1;
79117;PMS7003;68523;51.336;-0.846;2023-07-30T04:00:00;2;1;
79117;PMS7003;68523;51.336;-0.846;2023-07-30T04:03:00;2;1;
79117;PMS7003;68523;51.336;-0.846;2023-07-30T04:06:00;3;2;
79117;PMS7003;68523;51.336;-0.846;2023-07-30T04:09:00;3;2;
79117;PMS7003;68523;51.336;-0.846;2023-07-30T04:12:00;1;1;
79117;PMS7003;68523;51.336;-0.846;2023-07-30T04:15:00;2;2;
79117;PMS7003;68523;51.336;-0.846;2023-07-30T04:18:00;2;2;
79117;PMS7003;68523;51.336;-0.846;2023-07-30T04:21:00;1;1;
79117;PMS7003;68523;51.336;-0.846;2023-07-30T04:24:00;1;1;
79117;PMS7003;68523;51.336;-0.846;2023-07-30T04:27:00;1;1;
79117;PMS7003;68523;51.336;-0.846;2023-07-30T04:30:00;4;2;
79117;PMS7003;68523;51.336;-0.846;2023-07-30T04:33:00;4;2;
79117;PMS7003;68523;51.336;-0.846;2023-07-30T04:36:00;3;2;
79117;PMS7003;68523;51.336;-0.846;2023-07-30T04:39:00;3;2;
79117;PMS7003;68523;51.336;-0.846;2023-07-30T04:42:00;4;3;
79117;PMS7003;68523;51.336;-0.846;2023-07-30T04:45:00;3;2;
79117;PMS7003;68523;51.336;-0.846;2023-07-30T04:48:00;3;2;
79117;PMS7003;68523;51.336;-0.846;2023-07-30T04:51:00;5;4;
79117;PMS7003;68523;51.336;-0.846;2023-07-30T04:54:00;5;4;
79117;PMS7003;68523;51.336;-0.846;2023-07-30T04:57:00;2;2;
79117;PMS7003;68523;51.336;-0.846;2023-07-30T05:00:00;4;3;
79117;PMS7003;68523;51.336;-0.846;2023-07-30T05:03:00;4;3;
79117;PMS7003;68523;51.336;-0.846;2023-07-30T05:06:00;8;5;
79117;PMS7003;68523;51.336;-0.846;2023-07-30T05:09:00;8;5;
79117;PMS7003;68523;51.336;-0.846;2023-07-30T05:12:00;3;3;
79117;PMS7003;68523;51.336;-0.846;2023-07-30T05:15:00;6;4;
79117;PMS7003;68523;51.336;-0.846;2023-07-30T05:18:00;6;4;
79117;PMS7003;68523;51.336;-0.846;2023-07-30T05:21:00;4;2;
79117;PMS7003;68523;51.336;-0.846;2023-07-30T05:24:00;4;2;
79117;PMS7003;68523;51.336;-0.846;2023-07-30T05:27:00;3;3;
79117;PMS7003;68523;51.336;-0.846;2023-07-30T05:30:00;3;3;
79117;PMS7003;68523;51.336;-0.846;2023-07-30T05:33:00;3;3;
79117;PMS7003;68523;51.336;-0.846;2023-07-30T05:36:00;3;3;
79117;PMS7003;68523;51.336;-0.846;2023-07-30T05:39:00;3;3;
79117;PMS7003;68523;51.336;-0.846;2023-07-30T05:42:00;2;1;
79117;PMS7003;68523;51.336;-0.846;2023-07-30T05:45:00;1;1;
79117;PMS7003;68523;51.336;-0.846;2023-07-30T05:48:00;1;1;
79117;PMS7003;68523;51.336;-0.846;2023-07-30T05:51:00;2;2;
79117;PMS7003;68523;51.336;-0.846;2023-07-30T05:54:00;2;2;
79117;PMS7003;68523;51.336;-0.846;2023-07-30T05:57:00;5;5;
79117;PMS7003;68523;51.336;-0.846;2023-07-30T06:00:00;1;1;
79117;PMS7003;68523;51.336;-0.846;2023-07-30T06:03:01;1;1;
79117;PMS7003;68523;51.336;-0.846;2023-07-30T06:06:00;4;3;
79117;PMS7003;68523;51.336;-0.846;2023-07-30T06:09:00;4;3;
79117;PMS7003;68523;51.336;-0.846;2023-07-30T06:12:00;3;3;
79117;PMS7003;68523;51.336;-0.846;2023-07-30T06:15:00;12;11;
79117;PMS7003;68523;51.336;-0.846;2023-07-30T06:18:00;12;11;
79117;PMS7003;68523;51.336;-0.846;2023-07-30T06:21:00;7;5;
79117;PMS7003;68523;51.336;-0.846;2023-07-30T06:24:00;7;5;
79117;PMS7003;68523;51.336;-0.846;2023-07-30T06:27:00;4;2;
79117;PMS7003;68523;51.336;-0.846;2023-07-30T06:30:00;3;3;
79117;PMS7003;68523;51.336;-0.846;2023-07-30T06:33:00;3;3;
79117;PMS7003;68523;51.336;-0.846;2023-07-30T06:36:00;6;3;
79117;PMS7003;68523;51.336;-0.846;2023-07-30T06:39:00;6;3;
79117;PMS7003;68523;51.336;-0.846;2023-07-30T06:42:00;3;2;
79117;PMS7003;68523;51.336;-0.846;2023-07-30T06:45:00;7;7;
79117;PMS7003;68523;51.336;-0.846;2023-07-30T06:48:00;7;7;
79117;PMS7003;68523;51.336;-0.846;2023-07-30T06:51:00;2;1;
79117;PMS7003;68523;51.336;-0.846;2023-07-30T06:54:00;2;1;
79117;PMS7003;68523;51.336;-0.846;2023-07-30T06:57:00;2;2;
79117;PMS7003;68523;51.336;-0.846;2023-07-30T07:00:00;6;5;
79117;PMS7003;68523;51.336;-0.846;2023-07-30T07:03:00;6;5;
79117;PMS7003;68523;51.336;-0.846;2023-07-30T07:06:00;9;8;
79117;PMS7003;68523;51.336;-0.846;2023-07-30T07:09:00;9;8;
79117;PMS7003;68523;51.336;-0.846;2023-07-30T07:12:00;12;8;
79117;PMS7003;68523;51.336;-0.846;2023-07-30T07:15:00;14;13;
79117;PMS7003;68523;51.336;-0.846;2023-07-30T07:18:00;14;13;
79117;PMS7003;68523;51.336;-0.846;2023-07-30T07:21:00;37;33;
79117;PMS7003;68523;51.336;-0.846;2023-07-30T07:24:00;37;33;
79117;PMS7003;68523;51.336;-0.846;2023-07-30T07:27:00;7;4;
79117;PMS7003;68523;51.336;-0.846;2023-07-30T07:30:00;3;3;
79117;PMS7003;68523;51.336;-0.846;2023-07-30T07:33:00;3;3;
79117;PMS7003;68523;51.336;-0.846;2023-07-30T07:36:03;12;11;
79117;PMS7003;68523;51.336;-0.846;2023-07-30T07:39:00;12;11;
79117;PMS7003;68523;51.336;-0.846;2023-07-30T07:42:00;36;32;
79117;PMS7003;68523;51.336;-0.846;2023-07-30T07:45:01;26;21;
79117;PMS7003;68523;51.336;-0.846;2023-07-30T07:48:00;26;21;
79117;PMS7003;68523;51.336;-0.846;2023-07-30T07:51:00;17;15;
79117;PMS7003;68523;51.336;-0.846;2023-07-30T07:54:00;17;15;
79117;PMS7003;68523;51.336;-0.846;2023-07-30T07:57:00;22;22;
79117;PMS7003;68523;51.336;-0.846;2023-07-30T08:00:00;36;33;
79117;PMS7003;68523;51.336;-0.846;2023-07-30T08:03:00;36;33;
79117;PMS7003;68523;51.336;-0.846;2023-07-30T08:06:01;45;38;
79117;PMS7003;68523;51.336;-0.846;2023-07-30T08:09:00;45;38;
79117;PMS7003;68523;51.336;-0.846;2023-07-30T08:12:00;44;38;
79117;PMS7003;68523;51.336;-0.846;2023-07-30T08:15:00;51;44;
79117;PMS7003;68523;51.336;-0.846;2023-07-30T08:18:00;51;44;
79117;PMS7003;68523;51.336;-0.846;2023-07-30T08:21:00;35;33;
79117;PMS7003;68523;51.336;-0.846;2023-07-30T08:24:00;35;33;
79117;PMS7003;68523;51.336;-0.846;2023-07-30T08:27:00;52;43;
79117;PMS7003;68523;51.336;-0.846;2023-07-30T08:30:00;63;51;
79117;PMS7003;68523;51.336;-0.846;2023-07-30T08:33:00;63;51;
79117;PMS7003;68523;51.336;-0.846;2023-07-30T08:36:00;66;53;
79117;PMS7003;68523;51.336;-0.846;2023-07-30T08:39:00;66;53;
79117;PMS7003;68523;51.336;-0.846;2023-07-30T08:42:00;35;31;
79117;PMS7003;68523;51.336;-0.846;2023-07-30T08:45:00;68;54;
79117;PMS7003;68523;51.336;-0.846;2023-07-30T08:48:00;68;54;
79117;PMS7003;68523;51.336;-0.846;2023-07-30T08:51:00;63;50;
79117;PMS7003;68523;51.336;-0.846;2023-07-30T08:54:00;63;50;
79117;PMS7003;68523;51.336;-0.846;2023-07-30T08:57:00;54;43;
79117;PMS7003;68523;51.336;-0.846;2023-07-30T09:00:02;55;42;
79117;PMS7003;68523;51.336;-0.846;2023-07-30T09:03:00;55;42;
79117;PMS7003;68523;51.336;-0.846;2023-07-30T09:06:00;48;37;
79117;PMS7003;68523;51.336;-0.846;2023-07-30T09:09:00;48;37;
79117;PMS7003;68523;51.336;-0.846;2023-07-30T09:12:00;49;41;
79117;PMS7003;68523;51.336;-0.846;2023-07-30T09:15:00;72;61;
79117;PMS7003;68523;51.336;-0.846;2023-07-30T09:18:00;72;61;
79117;PMS7003;68523;51.336;-0.846;2023-07-30T09:21:01;65;53;
79117;PMS7003;68523;51.336;-0.846;2023-07-30T09:24:01;65;53;
79117;PMS7003;68523;51.336;-0.846;2023-07-30T09:27:01;64;53;
79117;PMS7003;68523;51.336;-0.846;2023-07-30T09:30:00;64;52;
79117;PMS7003;68523;51.336;-0.846;2023-07-30T09:33:00;64;52;
79117;PMS7003;68523;51.336;-0.846;2023-07-30T09:36:01;62;52;
79117;PMS7003;68523;51.336;-0.846;2023-07-30T09:39:00;62;52;
79117;PMS7003;68523;51.336;-0.846;2023-07-30T09:42:00;63;51;
79117;PMS7003;68523;51.336;-0.846;2023-07-30T09:45:00;63;51;
79117;PMS7003;68523;51.336;-0.846;2023-07-30T09:48:00;63;51;
79117;PMS7003;68523;51.336;-0.846;2023-07-30T09:51:00;58;49;
79117;PMS7003;68523;51.336;-0.846;2023-07-30T09:54:00;58;49;
79117;PMS7003;68523;51.336;-0.846;2023-07-30T09:57:00;67;57;
79117;PMS7003;68523;51.336;-0.846;2023-07-30T10:00:00;61;50;
79117;PMS7003;68523;51.336;-0.846;2023-07-30T10:03:00;61;50;
79117;PMS7003;68523;51.336;-0.846;2023-07-30T10:06:02;66;54;
79117;PMS7003;68523;51.336;-0.846;2023-07-30T10:09:00;66;54;
79117;PMS7003;68523;51.336;-0.846;2023-07-30T10:12:00;65;53;
79117;PMS7003;68523;51.336;-0.846;2023-07-30T10:15:00;55;45;
79117;PMS7003;68523;51.336;-0.846;2023-07-30T10:18:00;55;45;
79117;PMS7003;68523;51.336;-0.846;2023-07-30T10:21:00;59;49;
79117;PMS7003;68523;51.336;-0.846;2023-07-30T10:24:01;59;49;
79117;PMS7003;68523;51.336;-0.846;2023-07-30T10:27:05;48;41;
79117;PMS7003;68523;51.336;-0.846;2023-07-30T10:33:01;48;41;
79117;PMS7003;68523;51.336;-0.846;2023-07-30T10:36:00;41;36;
79117;PMS7003;68523;51.336;-0.846;2023-07-30T10:39:01;41;36;
79117;PMS7003;68523;51.336;-0.846;2023-07-30T10:42:00;41;36;
79117;PMS7003;68523;51.336;-0.846;2023-07-30T10:45:00;41;36;
79117;PMS7003;68523;51.336;-0.846;2023-07-30T10:48:03;45;39;
79117;PMS7003;68523;51.336;-0.846;2023-07-30T10:51:00;23;20;
79117;PMS7003;68523;51.336;-0.846;2023-07-30T10:54:00;23;20;
79117;PMS7003;68523;51.336;-0.846;2023-07-30T10:57:00;38;34;
79117;PMS7003;68523;51.336;-0.846;2023-07-30T11:00:00;38;34;
79117;PMS7003;68523;51.336;-0.846;2023-07-30T11:03:00;20;20;
79117;PMS7003;68523;51.336;-0.846;2023-07-30T11:06:00;12;12;
79117;PMS7003;68523;51.336;-0.846;2023-07-30T11:09:00;12;12;
79117;PMS7003;68523;51.336;-0.846;2023-07-30T11:12:00;6;6;
79117;PMS7003;68523;51.336;-0.846;2023-07-30T11:15:00;6;6;
79117;PMS7003;68523;51.336;-0.846;2023-07-30T11:18:00;13;13;
79117;PMS7003;68523;51.336;-0.846;2023-07-30T11:21:03;1;1;
79117;PMS7003;68523;51.336;-0.846;2023-07-30T11:24:00;1;1;
79117;PMS7003;68523;51.336;-0.846;2023-07-30T11:27:00;3;3;
79117;PMS7003;68523;51.336;-0.846;2023-07-30T11:30:00;3;3;
79117;PMS7003;68523;51.336;-0.846;2023-07-30T11:33:00;2;2;
79117;PMS7003;68523;51.336;-0.846;2023-07-30T11:36:00;1;1;
79117;PMS7003;68523;51.336;-0.846;2023-07-30T11:39:00;1;1;
79117;PMS7003;68523;51.336;-0.846;2023-07-30T11:42:00;19;19;
79117;PMS7003;68523;51.336;-0.846;2023-07-30T11:48:07;11;10;
79117;PMS7003;68523;51.336;-0.846;2023-07-30T11:51:00;9;8;
79117;PMS7003;68523;51.336;-0.846;2023-07-30T11:54:00;9;8;
79117;PMS7003;68523;51.336;-0.846;2023-07-30T11:57:00;11;11;
79117;PMS7003;68523;51.336;-0.846;2023-07-30T12:00:00;11;11;
79117;PMS7003;68523;51.336;-0.846;2023-07-30T12:03:01;3;3;
79117;PMS7003;68523;51.336;-0.846;2023-07-30T12:06:04;43;38;
79117;PMS7003;68523;51.336;-0.846;2023-07-30T12:09:00;43;38;
79117;PMS7003;68523;51.336;-0.846;2023-07-30T12:12:00;26;26;
79117;PMS7003;68523;51.336;-0.846;2023-07-30T12:15:00;26;26;
79117;PMS7003;68523;51.336;-0.846;2023-07-30T12:18:00;19;19;
79117;PMS7003;68523;51.336;-0.846;2023-07-30T12:21:00;6;6;
79117;PMS7003;68523;51.336;-0.846;2023-07-30T12:24:00;6;6;
79117;PMS7003;68523;51.336;-0.846;2023-07-30T12:27:00;2;2;
79117;PMS7003;68523;51.336;-0.846;2023-07-30T12:30:00;2;2;
79117;PMS7003;68523;51.336;-0.846;2023-07-30T12:33:00;18;18;
79117;PMS7003;68523;51.336;-0.846;2023-07-30T12:36:00;21;21;
79117;PMS7003;68523;51.336;-0.846;2023-07-30T12:39:00;21;21;
79117;PMS7003;68523;51.336;-0.846;2023-07-30T12:42:00;14;13;
79117;PMS7003;68523;51.336;-0.846;2023-07-30T12:45:00;14;13;
79117;PMS7003;68523;51.336;-0.846;2023-07-30T12:48:00;40;35;
79117;PMS7003;68523;51.336;-0.846;2023-07-30T12:51:00;34;32;
79117;PMS7003;68523;51.336;-0.846;2023-07-30T12:54:00;34;32;
79117;PMS7003;68523;51.336;-0.846;2023-07-30T12:57:00;71;63;
79117;PMS7003;68523;51.336;-0.846;2023-07-30T13:00:00;71;63;
79117;PMS7003;68523;51.336;-0.846;2023-07-30T13:03:00;47;40;
79117;PMS7003;68523;51.336;-0.846;2023-07-30T13:06:00;47;41;
79117;PMS7003;68523;51.336;-0.846;2023-07-30T13:09:00;47;41;
79117;PMS7003;68523;51.336;-0.846;2023-07-30T13:12:00;47;41;
79117;PMS7003;68523;51.336;-0.846;2023-07-30T13:15:00;47;41;
79117;PMS7003;68523;51.336;-0.846;2023-07-30T13:18:00;38;33;
79117;PMS7003;68523;51.336;-0.846;2023-07-30T13:21:00;34;32;
79117;PMS7003;68523;51.336;-0.846;2023-07-30T13:24:00;34;32;
79117;PMS7003;68523;51.336;-0.846;2023-07-30T13:27:00;34;32;
79117;PMS7003;68523;51.336;-0.846;2023-07-30T13:30:00;34;32;
79117;PMS7003;68523;51.336;-0.846;2023-07-30T13:33:00;34;32;
79117;PMS7003;68523;51.336;-0.846;2023-07-30T13:36:00;45;39;
79117;PMS7003;68523;51.336;-0.846;2023-07-30T13:39:00;45;39;
79117;PMS7003;68523;51.336;-0.846;2023-07-30T13:42:00;37;34;
79117;PMS7003;68523;51.336;-0.846;2023-07-30T13:45:00;37;34;
79117;PMS7003;68523;51.336;-0.846;2023-07-30T13:48:00;23;23;
79117;PMS7003;68523;51.336;-0.846;2023-07-30T13:51:00;38;35;
79117;PMS7003;68523;51.336;-0.846;2023-07-30T13:54:00;38;35;
79117;PMS7003;68523;51.336;-0.846;2023-07-30T13:57:01;34;32;
79117;PMS7003;68523;51.336;-0.846;2023-07-30T14:00:00;34;32;
79117;PMS7003;68523;51.336;-0.846;2023-07-30T14:03:00;25;25;
79117;PMS7003;68523;51.336;-0.846;2023-07-30T14:06:00;13;13;
79117;PMS7003;68523;51.336;-0.846;2023-07-30T14:09:00;13;13;
79117;PMS7003;68523;51.336;-0.846;2023-07-30T14:12:00;2;2;
79117;PMS7003;68523;51.336;-0.846;2023-07-30T14:15:00;2;2;
79117;PMS7003;68523;51.336;-0.846;2023-07-30T14:18:00;9;9;
79117;PMS7003;68523;51.336;-0.846;2023-07-30T14:21:00;6;6;
79117;PMS7003;68523;51.336;-0.846;2023-07-30T14:24:00;6;6;
79117;PMS7003;68523;51.336;-0.846;2023-07-30T14:27:00;12;12;
79117;PMS7003;68523;51.336;-0.846;2023-07-30T14:30:00;12;12;
79117;PMS7003;68523;51.336;-0.846;2023-07-30T14:33:00;5;2;
79117;PMS7003;68523;51.336;-0.846;2023-07-30T14:36:00;11;11;
79117;PMS7003;68523;51.336;-0.846;2023-07-30T14:39:00;11;11;
79117;PMS7003;68523;51.336;-0.846;2023-07-30T14:42:00;16;16;
79117;PMS7003;68523;51.336;-0.846;2023-07-30T14:45:00;16;16;
79117;PMS7003;68523;51.336;-0.846;2023-07-30T14:48:00;5;5;
79117;PMS7003;68523;51.336;-0.846;2023-07-30T14:51:00;8;8;
79117;PMS7003;68523;51.336;-0.846;2023-07-30T14:54:00;8;8;
79117;PMS7003;68523;51.336;-0.846;2023-07-30T14:57:00;2;2;
79117;PMS7003;68523;51.336;-0.846;2023-07-30T15:00:00;2;2;
79117;PMS7003;68523;51.336;-0.846;2023-07-30T15:03:00;1;1;
79117;PMS7003;68523;51.336;-0.846;2023-07-30T15:06:00;2;1;
79117;PMS7003;68523;51.336;-0.846;2023-07-30T15:09:00;2;1;
79117;PMS7003;68523;51.336;-0.846;2023-07-30T15:12:00;0;0;
79117;PMS7003;68523;51.336;-0.846;2023-07-30T15:15:00;0;0;
79117;PMS7003;68523;51.336;-0.846;2023-07-30T15:18:00;2;2;
79117;PMS7003;68523;51.336;-0.846;2023-07-30T15:21:00;3;3;
79117;PMS7003;68523;51.336;-0.846;2023-07-30T15:24:00;3;3;
79117;PMS7003;68523;51.336;-0.846;2023-07-30T15:27:00;4;3;
79117;PMS7003;68523;51.336;-0.846;2023-07-30T15:30:00;4;3;
79117;PMS7003;68523;51.336;-0.846;2023-07-30T15:33:00;7;3;
79117;PMS7003;68523;51.336;-0.846;2023-07-30T15:36:00;5;3;
79117;PMS7003;68523;51.336;-0.846;2023-07-30T15:39:00;5;3;
79117;PMS7003;68523;51.336;-0.846;2023-07-30T15:42:00;5;4;
79117;PMS7003;68523;51.336;-0.846;2023-07-30T15:45:00;5;4;
79117;PMS7003;68523;51.336;-0.846;2023-07-30T15:48:00;5;4;
79117;PMS7003;68523;51.336;-0.846;2023-07-30T15:51:00;7;6;
79117;PMS7003;68523;51.336;-0.846;2023-07-30T15:54:00;7;6;
79117;PMS7003;68523;51.336;-0.846;2023-07-30T15:57:00;8;6;
79117;PMS7003;68523;51.336;-0.846;2023-07-30T16:00:00;8;6;
79117;PMS7003;68523;51.336;-0.846;2023-07-30T16:03:00;4;4;
79117;PMS7003;68523;51.336;-0.846;2023-07-30T16:06:00;5;4;
79117;PMS7003;68523;51.336;-0.846;2023-07-30T16:09:00;5;4;
79117;PMS7003;68523;51.336;-0.846;2023-07-30T16:12:00;5;4;
79117;PMS7003;68523;51.336;-0.846;2023-07-30T16:15:00;5;4;
79117;PMS7003;68523;51.336;-0.846;2023-07-30T16:18:00;7;3;
79117;PMS7003;68523;51.336;-0.846;2023-07-30T16:21:00;6;6;
79117;PMS7003;68523;51.336;-0.846;2023-07-30T16:24:00;6;6;
79117;PMS7003;68523;51.336;-0.846;2023-07-30T16:27:00;6;6;
79117;PMS7003;68523;51.336;-0.846;2023-07-30T16:30:00;6;6;
79117;PMS7003;68523;51.336;-0.846;2023-07-30T16:33:00;11;7;
79117;PMS7003;68523;51.336;-0.846;2023-07-30T16:36:00;9;9;
79117;PMS7003;68523;51.336;-0.846;2023-07-30T16:39:00;9;9;
79117;PMS7003;68523;51.336;-0.846;2023-07-30T16:42:00;6;5;
79117;PMS7003;68523;51.336;-0.846;2023-07-30T16:45:00;6;5;
79117;PMS7003;68523;51.336;-0.846;2023-07-30T16:48:00;15;12;
79117;PMS7003;68523;51.336;-0.846;2023-07-30T16:51:00;6;6;
79117;PMS7003;68523;51.336;-0.846;2023-07-30T16:54:00;6;6;
79117;PMS7003;68523;51.336;-0.846;2023-07-30T16:57:00;11;10;
79117;PMS7003;68523;51.336;-0.846;2023-07-30T17:00:00;11;10;
79117;PMS7003;68523;51.336;-0.846;2023-07-30T17:03:00;10;9;
79117;PMS7003;68523;51.336;-0.846;2023-07-30T17:06:00;10;10;
79117;PMS7003;68523;51.336;-0.846;2023-07-30T17:09:00;10;10;
79117;PMS7003;68523;51.336;-0.846;2023-07-30T17:12:00;19;17;
79117;PMS7003;68523;51.336;-0.846;2023-07-30T17:15:04;19;17;
79117;PMS7003;68523;51.336;-0.846;2023-07-30T17:18:00;20;18;
79117;PMS7003;68523;51.336;-0.846;2023-07-30T17:21:00;11;9;
79117;PMS7003;68523;51.336;-0.846;2023-07-30T17:24:00;11;9;
79117;PMS7003;68523;51.336;-0.846;2023-07-30T17:27:00;9;9;
79117;PMS7003;68523;51.336;-0.846;2023-07-30T17:30:00;9;9;
79117;PMS7003;68523;51.336;-0.846;2023-07-30T17:33:00;11;10;
79117;PMS7003;68523;51.336;-0.846;2023-07-30T17:36:00;20;17;
79117;PMS7003;68523;51.336;-0.846;2023-07-30T17:39:00;20;17;
79117;PMS7003;68523;51.336;-0.846;2023-07-30T17:42:00;12;10;
79117;PMS7003;68523;51.336;-0.846;2023-07-30T17:45:00;12;10;
79117;PMS7003;68523;51.336;-0.846;2023-07-30T17:48:00;12;12;
79117;PMS7003;68523;51.336;-0.846;2023-07-30T17:51:00;12;12;
79117;PMS7003;68523;51.336;-0.846;2023-07-30T17:54:00;17;14;
79117;PMS7003;68523;51.336;-0.846;2023-07-30T17:57:00;13;12;
79117;PMS7003;68523;51.336;-0.846;2023-07-30T18:00:00;13;12;
79117;PMS7003;68523;51.336;-0.846;2023-07-30T18:03:00;10;10;
79117;PMS7003;68523;51.336;-0.846;2023-07-30T18:06:00;10;10;
79117;PMS7003;68523;51.336;-0.846;2023-07-30T18:09:00;15;12;
79117;PMS7003;68523;51.336;-0.846;2023-07-30T18:12:00;11;9;
79117;PMS7003;68523;51.336;-0.846;2023-07-30T18:15:00;11;9;
79117;PMS7003;68523;51.336;-0.846;2023-07-30T18:18:00;11;8;
79117;PMS7003;68523;51.336;-0.846;2023-07-30T18:21:00;11;8;
79117;PMS7003;68523;51.336;-0.846;2023-07-30T18:24:00;14;11;
79117;PMS7003;68523;51.336;-0.846;2023-07-30T18:27:00;9;8;
79117;PMS7003;68523;51.336;-0.846;2023-07-30T18:30:00;9;8;
79117;PMS7003;68523;51.336;-0.846;2023-07-30T18:33:00;15;14;
79117;PMS7003;68523;51.336;-0.846;2023-07-30T18:36:00;15;14;
79117;PMS7003;68523;51.336;-0.846;2023-07-30T18:39:00;13;12;
79117;PMS7003;68523;51.336;-0.846;2023-07-30T18:42:00;12;10;
79117;PMS7003;68523;51.336;-0.846;2023-07-30T18:45:00;12;10;
79117;PMS7003;68523;51.336;-0.846;2023-07-30T18:48:00;17;13;
79117;PMS7003;68523;51.336;-0.846;2023-07-30T18:51:00;17;13;
79117;PMS7003;68523;51.336;-0.846;2023-07-30T18:54:00;14;12;
79117;PMS7003;68523;51.336;-0.846;2023-07-30T18:57:00;14;13;
79117;PMS7003;68523;51.336;-0.846;2023-07-30T19:00:00;14;13;
79117;PMS7003;68523;51.336;-0.846;2023-07-30T19:03:00;10;9;
79117;PMS7003;68523;51.336;-0.846;2023-07-30T19:06:00;10;9;
79117;PMS7003;68523;51.336;-0.846;2023-07-30T19:09:00;14;14;
79117;PMS7003;68523;51.336;-0.846;2023-07-30T19:12:00;11;9;
79117;PMS7003;68523;51.336;-0.846;2023-07-30T19:15:00;11;9;
79117;PMS7003;68523;51.336;-0.846;2023-07-30T19:18:00;14;11;
79117;PMS7003;68523;51.336;-0.846;2023-07-30T19:21:00;14;11;
79117;PMS7003;68523;51.336;-0.846;2023-07-30T19:24:00;12;11;
79117;PMS7003;68523;51.336;-0.846;2023-07-30T19:27:00;12;11;
79117;PMS7003;68523;51.336;-0.846;2023-07-30T19:30:00;12;11;
79117;PMS7003;68523;51.336;-0.846;2023-07-30T19:33:00;14;11;
79117;PMS7003;68523;51.336;-0.846;2023-07-30T19:36:01;14;11;
79117;PMS7003;68523;51.336;-0.846;2023-07-30T19:39:00;12;9;
79117;PMS7003;68523;51.336;-0.846;2023-07-30T19:42:00;16;11;
79117;PMS7003;68523;51.336;-0.846;2023-07-30T19:45:00;16;11;
79117;PMS7003;68523;51.336;-0.846;2023-07-30T19:48:00;14;10;
79117;PMS7003;68523;51.336;-0.846;2023-07-30T19:51:00;14;10;
79117;PMS7003;68523;51.336;-0.846;2023-07-30T19:54:00;9;8;
79117;PMS7003;68523;51.336;-0.846;2023-07-30T19:57:00;9;9;